Time;durP1;ratioP1;P1;durP2;ratioP2;P2;SDS_P1;SDS_P2;PMS_P1;PMS_P2;Temp;Humidity;BMP_temperature;BMP_pressure;BME280_temperature;BME280_humidity;BME280_pressure;Samples;Min_cycle;Max_cycle;Signal;HPM_P1;HPM_P2
2023/10/10 00:01:42;;;;;;;9.98;7.82;;;;;;;13.31;100.00;101645.16;6062316;23;20030;-71
2023/10/10 00:04:13;;;;;;;8.18;7.47;;;;;;;13.08;100.00;101606.69;6080906;23;21603;-71
2023/10/10 00:06:40;;;;;;;12.50;8.43;;;;;;;12.40;100.00;101497.56;6090848;23;20085;-70
2023/10/10 00:09:10;;;;;;;9.50;6.95;;;;;;;13.18;100.00;101644.00;6086730;23;20021;-71
2023/10/10 00:11:41;;;;;;;11.38;8.32;;;;;;;12.93;100.00;101608.28;6087510;23;20026;-71
2023/10/10 00:14:17;;;;;;;10.32;8.43;;;;;;;13.22;100.00;101663.16;6087074;23;20283;-73
2023/10/10 00:16:47;;;;;;;10.00;8.15;;;;;;;13.05;100.00;101641.09;6085601;23;20297;-73
2023/10/10 00:19:28;;;;;;;12.00;8.32;;;;;;;13.19;100.00;101674.72;6088590;23;20097;-71
2023/10/10 00:21:56;;;;;;;10.50;9.43;;;;;;;13.02;100.00;101645.66;6082570;23;20022;-72
2023/10/10 00:24:30;;;;;;;10.40;9.30;;;;;;;13.13;100.00;101665.31;6067166;23;20025;-72
2023/10/10 00:26:59;;;;;;;10.68;8.70;;;;;;;13.12;100.00;101662.75;6094403;23;20044;-73
2023/10/10 00:29:26;;;;;;;10.40;9.02;;;;;;;13.06;100.00;101655.13;6061908;23;20023;-71
2023/10/10 00:32:05;;;;;;;10.07;9.18;;;;;;;12.77;100.00;101620.47;6081200;23;20123;-72
2023/10/10 00:34:37;;;;;;;9.07;8.10;;;;;;;12.65;100.00;101602.59;6058967;23;20093;-72
2023/10/10 00:37:13;;;;;;;14.27;9.18;;;;;;;13.00;100.00;101668.59;6091307;23;20106;-72
2023/10/10 00:39:39;;;;;;;10.25;8.93;;;;;;;12.87;100.00;101645.47;6066128;23;20036;-73
2023/10/10 00:42:08;;;;;;;14.20;8.25;;;;;;;12.81;100.00;101626.44;6083160;23;20038;-73
2023/10/10 00:44:37;;;;;;;11.20;9.55;;;;;;;13.01;100.00;101665.91;6088686;23;20044;-72
2023/10/10 00:47:05;;;;;;;13.68;9.80;;;;;;;13.02;100.00;101658.84;6080739;23;20013;-73
2023/10/10 00:49:33;;;;;;;10.27;8.43;;;;;;;13.00;100.00;101664.16;6085189;23;20479;-72
2023/10/10 00:52:02;;;;;;;11.13;9.82;;;;;;;12.63;100.00;101605.31;6089158;23;20107;-71
2023/10/10 00:54:32;;;;;;;12.70;8.48;;;;;;;12.11;100.00;101520.84;6090175;23;20709;-72
2023/10/10 00:56:59;;;;;;;10.68;8.88;;;;;;;12.62;100.00;101608.00;6084384;23;20038;-71
2023/10/10 00:59:34;;;;;;;9.45;8.43;;;;;;;12.95;100.00;101653.00;6078522;23;20014;-72
2023/10/10 01:02:04;;;;;;;11.73;10.18;;;;;;;12.94;100.00;101652.13;6087176;23;20018;-71
2023/10/10 01:04:39;;;;;;;10.23;9.13;;;;;;;12.94;100.00;101660.03;6055843;23;20080;-72
2023/10/10 01:07:09;;;;;;;9.57;7.75;;;;;;;12.85;100.00;101654.34;6085860;23;20117;-70
2023/10/10 01:09:51;;;;;;;10.57;8.50;;;;;;;12.92;100.00;101650.50;6092998;23;20472;-72
2023/10/10 01:12:17;;;;;;;8.53;7.63;;;;;;;12.84;100.00;101645.59;6080868;23;20030;-74
2023/10/10 01:14:44;;;;;;;10.60;9.63;;;;;;;12.61;100.00;101615.06;6064447;23;20033;-71
2023/10/10 01:17:12;;;;;;;9.80;8.18;;;;;;;12.73;100.00;101638.19;6080503;23;20037;-73
2023/10/10 01:19:39;;;;;;;13.20;8.77;;;;;;;12.58;100.00;101626.56;6063007;23;20049;-72
2023/10/10 01:22:22;;;;;;;11.13;9.95;;;;;;;12.24;100.00;101565.84;6079062;23;20032;-72
2023/10/10 01:24:53;;;;;;;15.85;9.25;;;;;;;12.75;100.00;101641.63;6085714;23;20116;-72
2023/10/10 01:27:21;;;;;;;9.25;8.23;;;;;;;12.14;100.00;101541.72;6090476;23;20337;-71
2023/10/10 01:30:16;;;;;;;9.82;8.48;;;;;;;12.57;100.00;101624.03;6076836;23;20041;-71
2023/10/10 01:32:39;;;;;;;10.55;8.38;;;;;;;12.68;100.00;101636.69;6091536;23;20018;-71
2023/10/10 01:35:16;;;;;;;10.07;8.23;;;;;;;12.40;100.00;101581.81;6087400;23;20442;-71
2023/10/10 01:37:51;;;;;;;9.10;8.30;;;;;;;12.22;100.00;101567.72;6087060;23;20034;-71
2023/10/10 01:40:23;;;;;;;12.73;9.27;;;;;;;12.63;100.00;101628.13;6085444;23;20067;-72
2023/10/10 01:42:53;;;;;;;17.88;9.10;;;;;;;12.60;100.00;101633.56;6079664;23;20010;-74
2023/10/10 01:45:21;;;;;;;9.20;8.20;;;;;;;12.60;100.00;101628.28;6088187;23;20030;-72
2023/10/10 01:47:57;;;;;;;12.60;8.48;;;;;;;12.46;100.00;101606.06;6086136;23;20096;-71
2023/10/10 01:50:26;;;;;;;11.50;7.90;;;;;;;12.53;100.00;101623.31;6091140;23;20193;-72
2023/10/10 01:52:56;;;;;;;8.63;7.75;;;;;;;12.27;100.00;101574.47;6063489;23;20038;-72
2023/10/10 01:55:24;;;;;;;11.30;8.88;;;;;;;12.54;100.00;101618.88;6090668;23;20032;-71
2023/10/10 01:57:52;;;;;;;13.18;10.23;;;;;;;12.31;100.00;101583.94;6056521;23;20036;-72
2023/10/10 02:00:26;;;;;;;9.52;8.52;;;;;;;12.51;100.00;101617.25;6058163;23;20074;-71
2023/10/10 02:02:55;;;;;;;9.90;8.93;;;;;;;12.51;100.00;101634.84;6081205;23;20063;-71
2023/10/10 02:05:41;;;;;;;9.85;8.65;;;;;;;12.13;100.00;101547.94;6079735;23;20934;-71
2023/10/10 02:08:16;;;;;;;9.05;8.15;;;;;;;12.33;100.00;101590.00;6055291;23;20506;-72
2023/10/10 02:10:46;;;;;;;9.32;8.30;;;;;;;11.91;100.00;101527.00;6078999;23;20095;-72
2023/10/10 02:13:14;;;;;;;8.93;8.13;;;;;;;12.28;100.00;101588.47;6066753;23;20053;-72
2023/10/10 02:15:40;;;;;;;8.73;7.85;;;;;;;12.41;100.00;101609.81;6053323;23;20075;-71
2023/10/10 02:18:12;;;;;;;9.32;8.05;;;;;;;12.40;100.00;101605.50;6058517;23;20359;-72
2023/10/10 02:23:22;;;;;;;9.88;8.50;;;;;;;11.94;100.00;101535.59;6086007;23;20030;-72
2023/10/10 02:25:53;;;;;;;10.35;8.70;;;;;;;12.24;100.00;101582.50;6059049;23;20038;-71
2023/10/10 02:30:52;;;;;;;8.95;8.02;;;;;;;12.18;100.00;101580.13;6084795;23;20054;-71
2023/10/10 02:38:39;;;;;;;11.80;8.05;;;;;;;11.96;100.00;101554.78;6088253;23;20076;-72
2023/10/10 02:43:56;;;;;;;9.52;8.35;;;;;;;11.45;100.00;101469.34;6081029;23;20041;-70
2023/10/10 02:46:35;;;;;;;8.88;7.78;;;;;;;12.18;100.00;101602.03;6080944;23;20036;-71
2023/10/10 02:49:09;;;;;;;9.60;8.50;;;;;;;12.20;100.00;101599.34;6086032;23;20185;-73
2023/10/10 02:51:40;;;;;;;10.50;8.25;;;;;;;12.16;100.00;101588.09;6089002;23;20034;-71
2023/10/10 02:54:34;;;;;;;14.18;8.68;;;;;;;11.71;100.00;101526.06;6082347;23;20161;-71
2023/10/10 02:57:26;;;;;;;12.65;8.43;;;;;;;11.94;100.00;101564.50;6086567;23;20026;-72
2023/10/10 02:59:50;;;;;;;8.70;7.90;;;;;;;12.10;100.00;101613.84;6086833;23;20060;-72
2023/10/10 03:02:28;;;;;;;11.23;8.05;;;;;;;12.15;100.00;101596.09;6088738;23;20079;-72
2023/10/10 03:07:29;;;;;;;10.25;8.85;;;;;;;12.05;100.00;101581.63;6089518;23;20006;-73
2023/10/10 03:10:14;;;;;;;11.05;9.90;;;;;;;12.05;100.00;101581.63;6075695;23;20535;-72
2023/10/10 03:12:42;;;;;;;12.85;8.93;;;;;;;11.83;100.00;101552.75;6090173;23;20030;-72
2023/10/10 03:15:27;;;;;;;10.70;9.35;;;;;;;12.08;100.00;101594.63;6087326;23;20091;-72
2023/10/10 03:25:51;;;;;;;;;;;;;;;12.14;100.00;101621.53;6089738;23;20235;-73
2023/10/10 03:29:10;;;;;;;8.80;7.88;;;;;;;11.88;100.00;101577.06;6062557;23;19979;-72
2023/10/10 03:31:08;;;;;;;9.00;8.10;;;;;;;11.73;100.00;101547.88;6068346;23;20312;-72
2023/10/10 03:33:37;;;;;;;9.65;8.75;;;;;;;12.13;100.00;101622.47;6066349;23;22747;-71
2023/10/10 03:36:41;;;;;;;9.48;8.35;;;;;;;12.11;100.00;101621.66;6080995;23;20033;-71
2023/10/10 05:23:47;;;;;;;6.85;6.35;;;;;;;11.83;100.00;101603.56;6075951;23;20017;-72
2023/10/10 05:26:18;;;;;;;7.05;6.45;;;;;;;11.97;100.00;101630.16;6065087;23;20215;-73
2023/10/10 05:28:48;;;;;;;7.90;7.05;;;;;;;11.78;100.00;101618.69;6030104;23;20029;-71
2023/10/10 05:31:21;;;;;;;10.52;5.90;;;;;;;11.69;100.00;101577.00;6063252;23;20036;-73
2023/10/10 05:33:47;;;;;;;9.20;6.95;;;;;;;11.93;100.00;101614.59;6058286;23;20022;-72
2023/10/10 05:36:18;;;;;;;8.93;6.68;;;;;;;11.70;100.00;101570.81;6060366;23;20022;-73
2023/10/10 05:38:46;;;;;;;7.53;6.85;;;;;;;11.72;100.00;101574.22;6085306;23;20382;-71
2023/10/10 05:41:12;;;;;;;7.70;7.15;;;;;;;11.68;100.00;101570.88;6087863;23;20034;-72
2023/10/10 05:43:39;;;;;;;11.43;6.95;;;;;;;11.77;100.00;101583.63;6065764;23;20075;-73
2023/10/10 05:46:06;;;;;;;9.68;8.10;;;;;;;11.25;100.00;101500.91;6079042;23;20704;-72
2023/10/10 05:48:33;;;;;;;8.20;7.40;;;;;;;11.66;100.00;101593.75;6082516;23;20062;-72
2023/10/10 05:51:03;;;;;;;7.43;6.75;;;;;;;10.72;100.00;101434.78;6079632;23;20034;-72
2023/10/10 05:53:33;;;;;;;6.18;5.68;;;;;;;11.64;100.00;101584.22;6061319;23;20022;-72
2023/10/10 05:56:12;;;;;;;7.70;7.15;;;;;;;11.65;100.00;101589.44;6079210;23;20302;-72
2023/10/10 05:58:42;;;;;;;7.25;6.55;;;;;;;11.37;100.00;101545.06;6078446;23;20108;-73
2023/10/10 06:01:14;;;;;;;7.53;6.85;;;;;;;11.69;100.00;101592.78;6062283;23;20455;-71
2023/10/10 06:03:42;;;;;;;7.03;6.43;;;;;;;11.65;100.00;101592.06;6064517;23;20420;-72
2023/10/10 06:06:15;;;;;;;7.22;6.38;;;;;;;11.64;100.00;101600.84;6082105;23;20034;-71
2023/10/10 06:08:43;;;;;;;6.60;6.10;;;;;;;11.48;100.00;101555.94;6077713;23;20035;-72
2023/10/10 06:11:14;;;;;;;11.52;6.50;;;;;;;11.71;100.00;101602.31;6049448;23;20485;-73
2023/10/10 06:13:43;;;;;;;6.22;5.78;;;;;;;11.69;100.00;101577.84;6058548;23;20412;-72
2023/10/10 06:16:14;;;;;;;8.27;6.95;;;;;;;11.75;100.00;101588.13;6051636;23;20042;-72
2023/10/10 06:18:42;;;;;;;8.32;6.68;;;;;;;11.60;100.00;101580.03;6058993;23;20096;-73
2023/10/10 06:21:09;;;;;;;10.48;6.88;;;;;;;11.50;100.00;101554.09;6059069;23;20051;-73
2023/10/10 06:23:36;;;;;;;8.35;6.20;;;;;;;11.35;100.00;101547.72;6081029;23;20030;-72
2023/10/10 06:26:06;;;;;;;8.38;7.57;;;;;;;11.39;100.00;101543.22;6083513;23;20040;-72
2023/10/10 06:28:45;;;;;;;8.23;6.72;;;;;;;11.83;100.00;101606.19;6090006;23;20022;-73
2023/10/10 06:31:19;;;;;;;11.57;6.22;;;;;;;11.73;100.00;101589.94;6086586;23;20033;-72
2023/10/10 06:33:49;;;;;;;12.50;7.07;;;;;;;10.71;100.00;101419.09;6028928;23;20054;-72
2023/10/10 06:38:59;;;;;;;7.45;6.68;;;;;;;11.69;100.00;101572.59;6089197;23;21415;-72
2023/10/10 06:41:27;;;;;;;7.10;6.50;;;;;;;12.02;100.00;101621.22;6057831;23;20200;-72
2023/10/10 06:43:54;;;;;;;9.65;7.68;;;;;;;11.68;100.00;101543.72;6061944;23;20031;-73
2023/10/10 06:46:23;;;;;;;7.05;6.35;;;;;;;12.05;100.00;101581.63;6082674;23;20049;-73
2023/10/10 06:48:50;;;;;;;7.28;6.22;;;;;;;12.26;100.00;101601.72;6064085;23;20438;-73
2023/10/10 06:51:22;;;;;;;12.05;7.05;;;;;;;12.40;100.00;101589.72;6086254;23;20057;-72
2023/10/10 06:53:54;;;;;;;11.48;6.82;;;;;;;12.25;100.00;101564.91;6078641;23;20585;-72
2023/10/10 06:56:43;;;;;;;9.43;7.55;;;;;;;12.50;100.00;101578.66;6061340;23;20241;-72
2023/10/10 06:59:16;;;;;;;7.90;7.18;;;;;;;12.80;100.00;101595.75;6081842;23;20026;-73
2023/10/10 07:01:45;;;;;;;7.10;6.38;;;;;;;12.57;100.00;101540.63;6083027;23;20047;-73
2023/10/10 07:04:13;;;;;;;6.97;6.38;;;;;;;12.77;100.00;101541.47;6082158;23;20077;-71
2023/10/10 07:06:44;;;;;;;6.60;6.07;;;;;;;12.71;100.00;101512.78;6056822;23;20089;-72
2023/10/10 07:09:27;;;;;;;6.75;6.25;;;;;;;13.01;100.00;101528.88;6091188;23;20663;-71
2023/10/10 07:11:55;;;;;;;11.57;7.60;;;;;;;13.33;100.00;101577.41;6084088;23;20056;-71
2023/10/10 07:14:25;;;;;;;7.10;6.47;;;;;;;13.07;100.00;101504.84;6084449;23;20022;-72
2023/10/10 07:16:56;;;;;;;8.15;6.93;;;;;;;13.49;100.00;101556.38;6083996;23;20444;-72
2023/10/10 07:19:30;;;;;;;7.45;6.30;;;;;;;13.40;100.00;101513.81;6066581;23;20014;-72
2023/10/10 07:21:59;;;;;;;8.93;8.15;;;;;;;13.57;100.00;101519.91;6086316;23;20129;-73
2023/10/10 07:24:29;;;;;;;9.50;7.32;;;;;;;13.68;100.00;101518.50;6091732;23;20024;-74
2023/10/10 07:27:13;;;;;;;7.28;6.63;;;;;;;13.14;100.00;101414.00;6091696;23;20109;-72
2023/10/10 07:32:27;;;;;;;7.45;6.75;;;;;;;13.50;100.00;101436.78;6090404;23;20907;-71
2023/10/10 07:34:58;;;;;;;8.07;7.30;;;;;;;13.72;100.00;101470.78;6081050;23;20041;-73
2023/10/10 07:37:29;;;;;;;8.50;7.50;;;;;;;13.88;100.00;101486.66;6087925;23;20022;-71
2023/10/10 07:39:55;;;;;;;9.13;8.23;;;;;;;13.60;100.00;101439.78;6088619;23;20046;-71
2023/10/10 07:42:27;;;;;;;7.13;6.43;;;;;;;13.97;100.00;101469.47;6085193;23;20025;-71
2023/10/10 07:44:57;;;;;;;7.47;6.47;;;;;;;13.73;100.00;101410.94;6060964;23;20030;-72
2023/10/10 07:47:27;;;;;;;9.45;6.78;;;;;;;14.16;100.00;101464.03;6086679;23;20114;-70
2023/10/10 07:49:59;;;;;;;8.45;7.75;;;;;;;14.23;100.00;101465.41;6089532;23;20369;-71
2023/10/10 07:52:26;;;;;;;8.07;5.95;;;;;;;14.33;100.00;101463.97;6066956;23;20525;-73
2023/10/10 07:55:03;;;;;;;8.32;6.15;;;;;;;14.20;100.00;101436.53;6085872;23;20078;-72
2023/10/10 07:57:55;;;;;;;10.05;7.40;;;;;;;14.14;100.00;101400.75;6064341;23;20084;-71
2023/10/10 08:00:17;;;;;;;7.63;6.80;;;;;;;14.63;100.00;101442.06;6085820;23;20289;-72
2023/10/10 08:02:49;;;;;;;8.02;7.22;;;;;;;14.66;100.00;101423.41;6086713;23;20520;-71
2023/10/10 08:05:19;;;;;;;7.43;6.63;;;;;;;14.73;100.00;101393.06;6079515;23;20032;-73
2023/10/10 08:07:47;;;;;;;6.88;6.32;;;;;;;15.01;100.00;101409.91;6080141;23;20025;-71
2023/10/10 08:10:14;;;;;;;7.93;7.13;;;;;;;14.67;100.00;101327.38;6081250;23;20611;-72
2023/10/10 08:12:43;;;;;;;9.68;7.30;;;;;;;14.80;100.00;101321.34;6079037;23;20028;-70
2023/10/10 08:15:19;;;;;;;8.82;7.90;;;;;;;14.92;100.00;101302.94;6085363;23;20029;-70
2023/10/10 08:17:52;;;;;;;10.48;6.60;;;;;;;14.56;100.00;101200.34;6063223;23;20433;-71
2023/10/10 08:22:59;;;;;;;7.55;6.72;;;;;;;15.44;100.00;101319.19;6078772;23;21086;-72
2023/10/10 08:25:26;;;;;;;10.23;7.10;;;;;;;15.55;100.00;101312.28;6058223;23;20030;-73
2023/10/10 08:27:52;;;;;;;8.18;7.40;;;;;;;15.64;100.00;101310.00;6092777;23;20198;-73
2023/10/10 08:30:25;;;;;;;8.52;6.50;;;;;;;15.83;100.00;101310.53;6081855;23;20024;-73
2023/10/10 08:32:54;;;;;;;11.23;7.65;;;;;;;15.95;100.00;101304.44;6081355;23;20018;-72
2023/10/10 08:35:38;;;;;;;10.90;8.32;;;;;;;16.01;100.00;101275.88;6056811;23;20040;-72
2023/10/10 08:38:05;;;;;;;11.15;8.25;;;;;;;15.84;100.00;101224.06;6084701;23;20045;-73
2023/10/10 08:40:36;;;;;;;7.85;6.93;;;;;;;16.42;100.00;101275.75;6058523;23;20580;-73
2023/10/10 08:43:09;;;;;;;7.90;7.10;;;;;;;16.62;100.00;101255.00;6056749;23;20017;-73
2023/10/10 08:45:39;;;;;;;9.60;6.63;;;;;;;16.68;100.00;101205.09;6082994;23;20069;-73
2023/10/10 08:48:12;;;;;;;10.73;7.32;;;;;;;16.81;100.00;101185.66;6086523;23;20225;-73
2023/10/10 08:50:40;;;;;;;8.05;7.25;;;;;;;17.05;100.00;101189.25;6088785;23;20025;-71
2023/10/10 08:53:11;;;;;;;7.88;7.20;;;;;;;17.01;100.00;101149.81;6076251;23;20618;-71
2023/10/10 08:55:38;;;;;;;7.13;6.32;;;;;;;16.88;100.00;101091.53;6086206;23;20049;-71
2023/10/10 08:58:13;;;;;;;7.88;7.28;;;;;;;17.11;100.00;101100.44;6061856;23;20102;-71
2023/10/10 09:00:39;;;;;;;9.88;6.65;;;;;;;17.43;100.00;101121.94;6086430;23;20421;-72
2023/10/10 09:03:07;;;;;;;7.60;7.00;;;;;;;17.59;100.00;101108.38;6089531;23;20123;-71
2023/10/10 09:05:36;;;;;;;7.72;6.90;;;;;;;17.28;100.00;101077.97;6081833;23;20021;-71
2023/10/10 09:08:14;;;;;;;9.02;7.95;;;;;;;17.53;100.00;101074.34;6058466;23;20452;-71
2023/10/10 09:10:43;;;;;;;7.20;6.50;;;;;;;17.38;100.00;101056.91;6028488;23;20029;-71
2023/10/10 09:13:12;;;;;;;6.55;6.05;;;;;;;17.89;100.00;101078.66;6085673;23;20436;-71
2023/10/10 09:15:54;;;;;;;8.43;6.80;;;;;;;17.68;100.00;101021.88;6083989;23;20094;-72
2023/10/10 09:18:25;;;;;;;7.57;6.88;;;;;;;17.84;100.00;101032.19;6057853;23;20096;-73
2023/10/10 09:20:56;;;;;;;8.00;7.30;;;;;;;18.18;99.65;101032.22;6091230;23;20573;-71
2023/10/10 09:23:26;;;;;;;7.20;6.60;;;;;;;18.32;100.00;101054.09;6078988;23;20108;-72
2023/10/10 09:26:19;;;;;;;9.20;7.82;;;;;;;18.51;98.56;101048.13;6082804;23;20030;-72
2023/10/10 09:28:55;;;;;;;7.68;6.88;;;;;;;18.46;95.76;100964.41;6061382;23;20028;-74
2023/10/10 09:31:31;;;;;;;7.43;6.72;;;;;;;18.66;93.37;100955.69;6081833;23;20048;-70
2023/10/10 09:34:03;;;;;;;8.25;7.45;;;;;;;18.70;93.18;100959.78;6081002;23;20012;-72
2023/10/10 09:36:37;;;;;;;13.88;7.18;;;;;;;18.69;90.86;100931.50;6064965;23;20036;-72
2023/10/10 09:39:26;;;;;;;7.68;6.90;;;;;;;18.34;91.44;100897.16;6086679;23;20236;-72
2023/10/10 09:44:53;;;;;;;7.40;6.80;;;;;;;18.88;90.16;100949.47;6085119;23;20041;-71
2023/10/10 09:52:53;;;;;;;8.48;6.70;;;;;;;19.10;88.99;100951.16;6083566;23;20022;-72
2023/10/10 09:58:00;;;;;;;7.38;6.40;;;;;;;18.51;88.70;100838.16;6059533;23;20092;-71
2023/10/10 10:00:45;;;;;;;7.13;6.43;;;;;;;19.38;86.04;100930.16;6086449;23;20099;-72
2023/10/10 10:06:19;;;;;;;7.65;7.00;;;;;;;19.52;86.38;100956.47;6088578;23;20611;-73
2023/10/10 10:09:20;;;;;;;7.50;6.80;;;;;;;19.70;86.80;100988.66;6099451;23;20483;-71
2023/10/10 10:12:19;;;;;;;6.80;6.10;;;;;;;18.18;84.79;100692.19;6094449;23;20025;-72
2023/10/10 10:14:55;;;;;;;7.10;6.50;;;;;;;20.00;85.91;100994.13;6076959;23;20522;-71
2023/10/10 10:17:53;;;;;;;7.57;6.97;;;;;;;20.17;82.19;100897.56;6076446;23;20014;-71
2023/10/10 10:20:33;;;;;;;7.05;6.25;;;;;;;20.07;83.16;100896.72;6088137;23;20013;-72
2023/10/10 10:23:00;;;;;;;7.30;6.55;;;;;;;20.04;81.05;100847.19;6094671;23;20087;-72
2023/10/10 10:25:32;;;;;;;7.32;6.63;;;;;;;20.59;79.58;100889.38;6096028;23;20058;-72
2023/10/10 10:28:10;;;;;;;13.00;8.02;;;;;;;20.68;79.76;100914.34;6079545;23;20026;-72
2023/10/10 10:30:53;;;;;;;10.70;6.53;;;;;;;20.54;81.14;100918.22;6091934;23;20021;-72
2023/10/10 10:33:20;;;;;;;;;;;;;;;20.67;78.10;100843.31;6094859;23;20273;-71
2023/10/10 10:36:06;;;;;;;8.15;7.32;;;;;;;20.58;78.06;100857.47;6091121;23;19909;-72
2023/10/10 10:38:39;;;;;;;7.97;6.80;;;;;;;20.55;79.61;100922.59;6092142;23;20155;-73
2023/10/10 10:41:17;;;;;;;7.50;6.15;;;;;;;20.60;79.91;100911.53;6085479;23;20034;-72
2023/10/10 10:43:50;;;;;;;7.68;6.65;;;;;;;20.32;75.46;100754.91;6072594;23;20077;-73
2023/10/10 10:46:27;;;;;;;11.40;7.53;;;;;;;20.08;76.58;100768.66;6089172;23;20021;-72
2023/10/10 10:49:06;;;;;;;7.50;6.95;;;;;;;20.55;77.07;100831.06;6068668;23;20179;-71
2023/10/10 10:51:41;;;;;;;8.25;7.45;;;;;;;20.37;74.36;100725.19;6092275;23;20056;-72
2023/10/10 10:54:09;;;;;;;7.90;7.10;;;;;;;20.83;76.65;100880.09;6064386;23;20036;-74
2023/10/10 10:59:13;;;;;;;7.28;6.60;;;;;;;21.03;74.35;100799.03;6093920;23;20166;-74
2023/10/10 11:01:52;;;;;;;8.60;6.55;;;;;;;21.28;72.90;100789.50;6089947;23;20042;-71
2023/10/10 11:04:43;;;;;;;7.63;6.72;;;;;;;21.25;71.51;100746.25;6080481;23;20034;-72
2023/10/10 11:07:08;;;;;;;7.78;7.00;;;;;;;20.52;72.44;100669.56;6090408;23;20018;-71
2023/10/10 11:09:37;;;;;;;6.70;6.20;;;;;;;21.32;71.36;100782.03;6065055;23;20030;-71
2023/10/10 11:12:05;;;;;;;7.55;6.95;;;;;;;21.46;72.95;100851.00;6085958;23;20014;-71
2023/10/10 11:14:45;;;;;;;7.70;7.07;;;;;;;21.74;72.70;100852.84;6085507;23;20091;-70
2023/10/10 11:17:18;;;;;;;7.93;7.22;;;;;;;21.83;71.18;100799.34;6079990;23;20037;-71
2023/10/10 11:19:47;;;;;;;6.88;6.38;;;;;;;21.80;70.90;100790.78;6091652;23;20081;-71
2023/10/10 11:22:38;;;;;;;6.53;6.00;;;;;;;21.84;70.21;100792.16;6054669;23;20042;-72
2023/10/10 11:25:05;;;;;;;9.80;6.40;;;;;;;21.90;65.88;100602.69;6098095;23;20204;-71
2023/10/10 11:27:37;;;;;;;6.30;5.90;;;;;;;21.78;65.36;100606.59;6066522;23;20456;-72
2023/10/10 11:30:08;;;;;;;8.40;7.80;;;;;;;22.25;63.33;100563.53;6083698;23;20025;-72
2023/10/10 11:32:47;;;;;;;7.15;6.55;;;;;;;22.22;61.64;100520.19;6061403;23;20003;-72
2023/10/10 11:35:25;;;;;;;6.95;6.43;;;;;;;22.34;60.32;100508.25;6060701;23;20105;-71
2023/10/10 11:37:59;;;;;;;8.95;7.22;;;;;;;21.99;61.44;100518.09;6087952;23;20044;-71
2023/10/10 11:42:57;;;;;;;7.38;6.35;;;;;;;22.52;60.15;100566.16;6086670;23;20038;-73
2023/10/10 11:45:28;;;;;;;6.75;6.25;;;;;;;22.20;60.37;100539.06;6090430;23;20034;-71
2023/10/10 11:48:05;;;;;;;7.25;6.75;;;;;;;22.41;60.59;100599.34;6085451;23;20021;-72
2023/10/10 11:50:48;;;;;;;6.60;6.00;;;;;;;22.58;59.51;100614.47;6057440;23;20046;-72
2023/10/10 11:53:19;;;;;;;6.25;5.85;;;;;;;22.60;56.50;100440.47;6059839;23;20028;-73
2023/10/10 11:55:47;;;;;;;8.88;6.40;;;;;;;22.92;57.53;100577.97;6083608;23;20097;-72
2023/10/10 11:58:16;;;;;;;6.55;5.95;;;;;;;22.70;56.94;100530.25;6055929;23;20029;-71
2023/10/10 12:00:45;;;;;;;9.95;6.15;;;;;;;22.63;58.64;100646.94;6084972;23;20409;-71
2023/10/10 12:06:01;;;;;;;8.13;7.43;;;;;;;22.59;57.42;100660.78;6085745;23;20106;-72
2023/10/10 12:08:27;;;;;;;6.45;6.00;;;;;;;22.62;57.65;100653.28;6088943;23;20356;-71
2023/10/10 12:11:05;;;;;;;8.05;6.93;;;;;;;22.84;57.07;100669.78;6055755;23;20134;-72
2023/10/10 12:16:10;;;;;;;7.78;7.18;;;;;;;22.78;56.22;100665.06;6084111;23;20031;-72
2023/10/10 12:19:12;;;;;;;8.63;6.43;;;;;;;23.09;54.74;100618.03;6064457;23;20559;-70
2023/10/10 12:21:31;;;;;;;7.25;6.55;;;;;;;22.29;55.24;100574.72;6084441;23;20393;-72
2023/10/10 12:23:58;;;;;;;8.68;7.22;;;;;;;22.80;55.53;100706.72;6078862;23;20198;-71
2023/10/10 12:26:29;;;;;;;6.93;6.32;;;;;;;22.19;56.12;100681.75;6081000;23;20470;-71
2023/10/10 12:28:56;;;;;;;6.82;6.32;;;;;;;22.28;56.72;100777.06;6091339;23;20025;-72
2023/10/10 12:31:23;;;;;;;6.88;6.38;;;;;;;22.26;58.08;100845.06;6081809;23;20034;-72
2023/10/10 12:33:53;;;;;;;7.10;6.45;;;;;;;22.21;59.40;100861.53;6089092;23;20382;-70
2023/10/10 12:36:28;;;;;;;7.10;6.47;;;;;;;22.87;57.52;100900.44;6094415;23;20030;-71
2023/10/10 12:38:55;;;;;;;7.00;6.40;;;;;;;23.00;58.43;100891.16;6088833;23;20186;-70
2023/10/10 12:41:22;;;;;;;7.28;6.60;;;;;;;23.05;57.29;100873.66;6088738;23;20078;-71
2023/10/10 12:43:49;;;;;;;6.63;6.13;;;;;;;23.21;55.64;100815.84;6085640;23;20036;-72
2023/10/10 12:46:20;;;;;;;6.68;6.07;;;;;;;23.41;57.83;100931.59;6075858;23;21718;-70
2023/10/10 12:48:51;;;;;;;7.57;6.95;;;;;;;23.54;56.70;100899.06;6092678;23;20050;-71
2023/10/10 12:51:19;;;;;;;7.00;6.50;;;;;;;23.62;55.94;100850.88;6093465;23;20467;-72
2023/10/10 12:53:46;;;;;;;6.95;6.40;;;;;;;23.43;54.97;100785.84;6085015;23;20401;-73
2023/10/10 12:56:21;;;;;;;6.70;6.10;;;;;;;23.32;55.08;100826.28;6062128;23;20022;-72
2023/10/10 12:58:57;;;;;;;7.28;6.68;;;;;;;22.73;54.71;100694.13;6079408;23;20487;-72
2023/10/10 13:01:35;;;;;;;6.50;6.00;;;;;;;23.63;53.36;100801.63;6078585;23;20055;-72
2023/10/10 13:04:07;;;;;;;7.85;7.20;;;;;;;23.64;53.98;100812.19;6078789;23;20026;-72
2023/10/10 13:06:36;;;;;;;;;;;;;;;23.75;53.99;100835.16;6090306;23;20028;-73
2023/10/10 13:09:05;;;;;;;6.80;6.30;;;;;;;23.86;54.35;100867.06;6087820;23;19937;-72
2023/10/10 13:11:43;;;;;;;6.63;6.03;;;;;;;23.86;52.58;100797.38;6084535;23;20089;-71
2023/10/10 13:14:15;;;;;;;6.30;5.80;;;;;;;23.84;51.63;100744.94;6084421;23;20278;-73
2023/10/10 13:19:13;;;;;;;8.07;7.25;;;;;;;23.67;52.47;100773.50;6087081;23;20052;-72
2023/10/10 13:21:42;;;;;;;6.72;6.13;;;;;;;23.77;51.79;100757.28;6092744;23;20291;-71
2023/10/10 13:24:13;;;;;;;6.90;6.20;;;;;;;23.61;51.89;100745.50;6086077;23;20277;-71
2023/10/10 13:26:44;;;;;;;6.80;6.20;;;;;;;23.67;52.90;100801.16;6084418;23;20262;-70
2023/10/10 13:29:11;;;;;;;6.72;6.03;;;;;;;23.59;51.27;100711.84;6084446;23;20014;-72
2023/10/10 13:31:41;;;;;;;7.20;6.63;;;;;;;23.80;52.06;100799.88;6083807;23;20026;-73
2023/10/10 13:34:07;;;;;;;6.95;6.35;;;;;;;23.70;51.60;100776.69;6085801;23;20161;-72
2023/10/10 13:36:34;;;;;;;6.53;5.95;;;;;;;23.85;52.06;100809.09;6086415;23;20368;-71
2023/10/10 13:39:05;;;;;;;7.55;6.85;;;;;;;23.88;51.71;100807.94;6055943;23;20029;-72
2023/10/10 13:41:35;;;;;;;6.57;6.07;;;;;;;23.66;50.69;100748.53;6076509;23;20562;-72
2023/10/10 13:44:03;;;;;;;7.50;6.90;;;;;;;23.90;50.25;100760.34;6084742;23;20093;-72
2023/10/10 13:46:35;;;;;;;8.32;6.85;;;;;;;23.91;51.44;100812.94;6076410;23;20037;-73
2023/10/10 13:49:08;;;;;;;6.63;6.03;;;;;;;23.61;50.36;100721.41;6082863;23;20021;-74
2023/10/10 13:51:41;;;;;;;6.63;6.03;;;;;;;23.92;49.83;100754.84;6089899;23;20074;-73
2023/10/10 13:54:08;;;;;;;7.68;7.00;;;;;;;23.75;49.52;100721.75;6077275;23;20508;-73
2023/10/10 13:56:34;;;;;;;7.10;6.47;;;;;;;24.04;49.44;100766.91;6061882;23;20021;-72
2023/10/10 13:59:01;;;;;;;6.72;6.22;;;;;;;23.93;49.67;100761.84;6078645;23;20096;-71
2023/10/10 14:01:36;;;;;;;7.13;6.50;;;;;;;24.02;50.88;100823.34;6082515;23;20104;-72
2023/10/10 14:04:13;;;;;;;8.55;7.40;;;;;;;23.87;49.73;100737.41;6076062;23;20392;-71
2023/10/10 14:06:47;;;;;;;6.97;6.47;;;;;;;23.91;48.47;100710.25;6083157;23;20089;-71
2023/10/10 14:09:33;;;;;;;7.22;6.30;;;;;;;23.88;49.08;100751.63;6083830;23;20022;-71
2023/10/10 14:12:20;;;;;;;6.63;6.00;;;;;;;23.67;48.74;100735.97;6056269;23;20416;-71
2023/10/10 14:14:46;;;;;;;7.93;6.95;;;;;;;23.56;48.60;100698.81;6079875;23;20026;-71
2023/10/10 14:17:13;;;;;;;7.35;6.68;;;;;;;23.65;48.89;100733.50;6052028;23;20095;-70
2023/10/10 14:19:39;;;;;;;7.40;6.70;;;;;;;23.78;47.41;100708.91;6058245;23;20476;-71
2023/10/10 14:22:10;;;;;;;7.60;6.93;;;;;;;23.68;49.88;100805.50;6073232;23;20488;-71
2023/10/10 14:24:37;;;;;;;7.13;6.57;;;;;;;23.62;47.94;100714.22;6082384;23;20042;-72
2023/10/10 14:27:03;;;;;;;9.00;6.97;;;;;;;23.55;48.91;100764.91;6080246;23;20130;-71